Oakwood, Oklahoma
Current Conditions -  °F | °C
As of 6:55 PM on Wednesday 17 Dec 2014 (Local Time) from KJWG Reporting Station
Haze Haze  
Wind Chill:   Ceiling: 500
Heat Index:   Visibility: 3mi
Dew Point:   Wind: 6mph
Humidity: 100%   Direction: 90°E
Pressure: 30.12"   Gusts: NA
Location:  35.93°N, 98.71°W
Report Text: KJWG 180055Z AUTO 09005KT 3SM BR OVC005 02/02 A3012 RMK AO2 T00220022 TSNO
Loading
Personal Weather Stations






























Interactive Weather Map New forecast layout! Learn more

10-Day Weather Forecast

Advertisements
Track Severe Weather on mobile